KMNZ

Hamilton Municipal Airport

Hamilton, Texas, USA
METAR KMNZ 182235Z AUTO 09013G18KT 10SM SCT049 BKN065 34/19 A2992 RMK AO2 T03360186
Observed Flight Rules
Jun-18 @ 22:35 UTC (9 minutes ago) Visual Flight Rules
Wind Visibility Clouds
90° at 13 knots
 Gusting to 18 knots
10 miles
  • Scattered at 4,900' AGL
  • Broken at 6,500' AGL
Temperatures Readings
Current 34°C / 93°F
Dewpoint 19°C / 66°F
Humidity 41%
Altimeter 29.92" Hg
Pressure 1013 hPa
Elevation 396
METAR KMNZ 182235Z AUTO 09013G18KT 10SM SCT049 BKN065 34/19 A2992 RMK AO2 T03360186
Observed Flight Rules
Jun-18 @ 22:35 UTC
(9 minutes ago)
VFR
Wind Visibility
90° at 13 knots
 Gusting to 18 knots
10 miles
Clouds
  • Scattered at 4,900' AGL
  • Broken at 6,500' AGL
Temperature Dewpoint
34°C / 93°F 19°C / 66°F
Humidity Altimeter Pressure
41% 29.92" Hg 1013 hPa